Hovedside
METAR-TAF:

METAR-TAF

Lufthavner :

Taipei, Taiwan

breddegrad: 25-05N, lengdegrad: 121-13E, høyde over havet: 33 m

Gjeldene værobservasjon

Denne rapporten ble laget for 17 minutter siden, klokken 04:00 UTC
Vind 15 kt fra Nordøst
Temperatur 26°C
Luftfuktighet 74%
Trykk 1017 hPa
Sikt 10 km eller mer
Få skyer i en høyde av 2000 ft
Brutte skyer i en høyde av 3000 ft
Brutte skyer i en høyde av 8000 ft

METAR: RCTP 240400Z 04015KT 9999 FEW020 BKN030 BKN080 26/21 Q1017 NOSIG RMK A3005

Tid: 12:17 (04:17 UTC)

Varsel

Denne rapporten ble laget for 5 timer og 17 minutter siden, klokken 23:00 UTC
Varsel gyldig fra 24. klokken 00 UTC til 25. klokken 06 UTC
Vind 12 kt fra Nordøst
Sikt 10 km eller mer
Få skyer i en høyde av 1600 ft
Brutte skyer i en høyde av 3200 ft
Midlertidig
fra 24. klokken 19 UTC til 25. klokken 01 UTC
Vind 7 kt fra Øst

TAF: RCTP 232300Z 2400/2506 05012KT 9999 FEW016 BKN032 TEMPO 2419/2501 08007KT

Værobservasjoner og værvarsel for over 4000 flyplasser (METAR- og TAF-rapporter).

Tilgjengelige stasjoner er representert av de røde og gule prikkene på kartet.

Hold musepekeren over prikken for å se navnet på stasjonen.

Klikk så for å se værobservasjoner og -varsler.

For å forandre kartet kan du klikke på den grønne knappen med svart kryss for å zoome inn, på den grønne knappen med strek for å zoome ut, eller på de grønne pilene for å se tilstøtende kart.


METAR-TAF: